Time;durP1;ratioP1;P1;durP2;ratioP2;P2;SDS_P1;SDS_P2;PMS_P1;PMS_P2;Temp;Humidity;BMP_temperature;BMP_pressure;BME280_temperature;BME280_humidity;BME280_pressure;Samples;Min_cycle;Max_cycle;Signal;HPM_P1;HPM_P2
2021/12/22 00:00:14;;;;;;;27.58;14.07;;;;;;;-3.28;81.02;100463.34;5112186;28;20044;-75
2021/12/22 00:03:01;;;;;;;31.08;14.65;;;;;;;-3.32;80.93;100464.19;5113192;28;20064;-76
2021/12/22 00:05:31;;;;;;;29.20;13.98;;;;;;;-3.48;81.75;100469.31;5113456;28;20461;-76
2021/12/22 00:07:59;;;;;;;29.90;14.75;;;;;;;-3.52;82.50;100464.88;5113187;28;20052;-76
2021/12/22 00:10:26;;;;;;;30.88;13.85;;;;;;;-3.61;82.06;100476.22;5113288;28;20093;-75
2021/12/22 00:12:54;;;;;;;30.02;13.23;;;;;;;-3.65;81.47;100482.34;5113241;28;20126;-76
2021/12/22 00:15:23;;;;;;;27.63;12.90;;;;;;;-3.65;80.66;100483.25;5111785;28;20556;-76
2021/12/22 00:17:51;;;;;;;26.02;12.77;;;;;;;-3.66;80.83;100485.84;5112617;28;20392;-76
2021/12/22 00:20:18;;;;;;;31.58;14.30;;;;;;;-3.76;81.52;100479.56;5113288;28;20043;-76
2021/12/22 00:22:46;;;;;;;26.90;13.25;;;;;;;-3.65;80.61;100500.81;5113182;28;20043;-76
2021/12/22 00:25:14;;;;;;;26.85;13.32;;;;;;;-3.72;81.31;100488.41;5113052;28;20044;-76
2021/12/22 00:27:42;;;;;;;28.30;12.90;;;;;;;-3.70;80.77;100495.47;5113001;28;20047;-76
2021/12/22 00:30:11;;;;;;;26.65;12.73;;;;;;;-3.75;80.21;100496.31;5112719;28;20047;-75
2021/12/22 00:32:40;;;;;;;26.65;12.68;;;;;;;-3.78;81.35;100497.13;5113037;28;20050;-77
2021/12/22 00:35:09;;;;;;;30.80;13.40;;;;;;;-3.81;80.11;100494.47;5113867;28;20382;-75
2021/12/22 00:37:37;;;;;;;26.77;12.90;;;;;;;-3.83;80.68;100504.13;5116778;28;20508;-76
2021/12/22 00:40:05;;;;;;;25.80;12.50;;;;;;;-3.84;80.74;100504.97;5101447;28;20051;-76
2021/12/22 00:42:33;;;;;;;29.13;12.50;;;;;;;-3.82;80.15;100509.44;5114947;28;20507;-76
2021/12/22 00:45:01;;;;;;;26.77;11.93;;;;;;;-3.89;80.08;100510.19;5116162;28;20104;-76
2021/12/22 00:47:30;;;;;;;28.10;12.15;;;;;;;-3.97;79.86;100514.47;5116711;28;20047;-76
2021/12/22 00:50:00;;;;;;;29.02;13.35;;;;;;;-4.06;79.77;100502.06;5116301;28;20058;-81
2021/12/22 00:52:28;;;;;;;30.20;12.57;;;;;;;-4.11;79.35;100516.91;5117891;28;20546;-75
2021/12/22 00:54:55;;;;;;;28.58;13.48;;;;;;;-4.08;80.45;100516.97;5116545;28;20505;-76
2021/12/22 00:57:23;;;;;;;23.75;12.40;;;;;;;-4.19;79.82;100522.09;5116327;28;20050;-75
2021/12/22 00:59:51;;;;;;;28.58;12.25;;;;;;;-4.28;78.98;100521.97;5115944;28;20055;-76
2021/12/22 01:02:20;;;;;;;27.23;12.02;;;;;;;-4.29;79.70;100531.63;5116140;28;20047;-76
2021/12/22 01:04:47;;;;;;;26.38;12.77;;;;;;;-4.36;79.57;100532.41;5116229;28;20097;-76
2021/12/22 01:07:17;;;;;;;26.55;12.38;;;;;;;-4.42;79.45;100535.81;5116199;28;20523;-76
2021/12/22 01:09:44;;;;;;;24.85;12.07;;;;;;;-4.50;79.24;100534.81;5116184;28;20092;-76
2021/12/22 01:12:12;;;;;;;27.98;13.30;;;;;;;-4.48;79.11;100543.63;5115883;28;20051;-75
2021/12/22 01:14:41;;;;;;;31.95;13.65;;;;;;;-4.43;79.64;100538.44;5116027;28;20093;-75
2021/12/22 01:17:11;;;;;;;36.33;15.63;;;;;;;-4.51;79.48;100541.81;5116047;28;20519;-75
2021/12/22 01:19:45;;;;;;;32.13;13.55;;;;;;;-4.59;79.76;100547.84;5117437;28;20047;-76
2021/12/22 01:22:23;;;;;;;30.73;14.63;;;;;;;-4.58;79.83;100545.22;5117834;28;20096;-76
2021/12/22 01:25:01;;;;;;;25.52;12.20;;;;;;;-4.60;79.78;100541.66;5117791;28;20122;-77
2021/12/22 01:27:33;;;;;;;25.38;12.00;;;;;;;-4.53;80.79;100538.25;5117411;28;20042;-75
2021/12/22 01:30:01;;;;;;;24.30;12.05;;;;;;;-4.51;80.66;100535.66;5104277;28;20044;-76
2021/12/22 01:32:28;;;;;;;28.38;12.90;;;;;;;-4.42;79.85;100530.53;5095305;28;20096;-75
2021/12/22 01:34:56;;;;;;;34.15;14.63;;;;;;;-4.43;80.01;100533.16;5095336;28;20500;-75
2021/12/22 01:37:23;;;;;;;30.73;14.32;;;;;;;-4.57;80.88;100530.31;5095222;28;20063;-76
2021/12/22 01:39:52;;;;;;;33.88;15.50;;;;;;;-4.64;80.43;100533.69;5094979;28;20511;-76
2021/12/22 01:42:20;;;;;;;32.53;14.50;;;;;;;-4.58;80.66;100537.31;5111607;28;20047;-75
2021/12/22 01:45:02;;;;;;;28.25;12.88;;;;;;;-4.61;79.94;100534.63;5114674;28;20039;-76
2021/12/22 01:50:18;;;;;;;28.17;12.88;;;;;;;-4.69;79.89;100531.88;5116942;28;20055;-76
2021/12/22 01:52:46;;;;;;;28.05;12.88;;;;;;;-4.74;79.38;100535.28;5115429;28;20043;-77
2021/12/22 01:55:29;;;;;;;28.45;12.13;;;;;;;-4.82;79.87;100537.78;5115370;28;20399;-76
2021/12/22 01:58:01;;;;;;;25.00;12.48;;;;;;;-4.66;80.18;100537.19;5115282;28;20485;-76
2021/12/22 02:00:28;;;;;;;34.95;15.18;;;;;;;-4.71;80.31;100540.59;5116352;28;20051;-76
2021/12/22 02:02:56;;;;;;;29.52;13.60;;;;;;;-4.72;80.36;100544.97;5115248;28;20067;-76
2021/12/22 02:05:25;;;;;;;33.75;15.80;;;;;;;-4.66;80.62;100541.56;5115127;28;20046;-76
2021/12/22 02:07:56;;;;;;;39.10;16.20;;;;;;;-4.77;80.14;100543.16;5115104;28;20047;-76
2021/12/22 02:10:37;;;;;;;36.97;17.65;;;;;;;-4.78;81.37;100546.66;5116269;28;20381;-79
2021/12/22 02:13:05;;;;;;;35.75;17.15;;;;;;;-4.80;80.27;100547.50;5116218;28;20043;-77
2021/12/22 02:15:34;;;;;;;35.78;18.45;;;;;;;-4.70;80.77;100545.03;5114929;28;20051;-76
2021/12/22 02:18:03;;;;;;;38.47;18.85;;;;;;;-4.68;81.28;100549.47;5114963;28;20044;-76
2021/12/22 02:20:33;;;;;;;40.95;19.08;;;;;;;-4.71;80.61;100549.38;5114640;28;20600;-76
2021/12/22 02:23:00;;;;;;;40.83;20.02;;;;;;;-4.78;80.97;100560.69;5114780;28;20043;-77
2021/12/22 02:25:36;;;;;;;35.50;16.02;;;;;;;-4.67;81.31;100551.25;5114392;28;20397;-77
2021/12/22 02:28:09;;;;;;;35.42;15.95;;;;;;;-4.68;80.45;100554.75;5115302;28;20046;-75
2021/12/22 02:30:37;;;;;;;35.03;17.73;;;;;;;-4.60;80.42;100560.13;5115205;28;20047;-76
2021/12/22 02:33:20;;;;;;;37.45;18.83;;;;;;;-4.68;80.66;100567.03;5114644;28;20044;-75
2021/12/22 02:36:06;;;;;;;39.65;19.23;;;;;;;-4.60;80.56;100556.63;5115646;28;20043;-76
2021/12/22 02:38:34;;;;;;;31.95;15.32;;;;;;;-4.57;81.38;100551.41;5112389;28;20120;-77
2021/12/22 02:41:02;;;;;;;32.17;14.60;;;;;;;-4.61;80.59;100552.22;5099540;28;20069;-77
2021/12/22 02:43:33;;;;;;;33.80;14.55;;;;;;;-4.63;81.19;100556.56;5114510;28;20055;-76
2021/12/22 02:46:01;;;;;;;39.00;14.73;;;;;;;-4.45;81.02;100554.22;5114746;28;20051;-78
2021/12/22 02:48:30;;;;;;;36.72;15.60;;;;;;;-4.36;81.34;100550.88;5114232;28;20481;-76
2021/12/22 02:51:01;;;;;;;35.72;15.40;;;;;;;-4.57;81.04;100554.03;5114120;28;20063;-76
2021/12/22 02:53:37;;;;;;;32.83;15.27;;;;;;;-4.47;81.96;100548.03;5114442;28;20043;-76
2021/12/22 02:56:14;;;;;;;34.28;15.05;;;;;;;-4.30;81.54;100564.16;5114407;28;20147;-76
2021/12/22 02:58:53;;;;;;;41.95;16.63;;;;;;;-4.37;82.10;100560.50;5114332;28;20044;-76
2021/12/22 03:01:38;;;;;;;42.00;18.60;;;;;;;-4.27;81.35;100565.97;5114688;28;20048;-74
2021/12/22 03:04:12;;;;;;;37.38;17.95;;;;;;;-4.32;82.01;100565.88;5114476;28;20105;-77
2021/12/22 03:06:48;;;;;;;40.30;21.48;;;;;;;-4.30;81.33;100557.97;5114436;28;20043;-77
2021/12/22 03:09:16;;;;;;;40.20;18.80;;;;;;;-4.34;82.10;100570.25;5114200;28;20040;-77
2021/12/22 03:11:45;;;;;;;34.10;16.40;;;;;;;-4.21;82.02;100571.31;5113982;28;20047;-78
2021/12/22 03:14:13;;;;;;;31.88;14.88;;;;;;;-4.18;82.23;100562.56;5113987;28;20094;-77
2021/12/22 03:16:42;;;;;;;40.30;19.05;;;;;;;-4.20;81.77;100562.56;5113895;28;20377;-79
2021/12/22 03:19:10;;;;;;;37.10;18.38;;;;;;;-4.09;82.68;100565.31;5113897;28;20048;-77
2021/12/22 03:21:38;;;;;;;81.43;28.88;;;;;;;-4.03;82.10;100576.00;5113966;28;20450;-77
2021/12/22 03:24:08;;;;;;;438.35;117.05;;;;;;;-4.05;81.63;100576.84;5113401;28;20449;-78
2021/12/22 03:26:41;;;;;;;578.88;160.30;;;;;;;-3.96;81.16;100580.50;5113617;28;20040;-78
2021/12/22 03:29:08;;;;;;;572.22;163.40;;;;;;;-4.02;82.28;100572.50;5114838;28;20381;-78
2021/12/22 03:31:37;;;;;;;606.08;168.27;;;;;;;-4.07;82.67;100572.41;5113743;28;20050;-77
2021/12/22 03:34:04;;;;;;;438.75;128.55;;;;;;;-4.14;82.33;100567.91;5113663;28;20047;-77
2021/12/22 03:36:32;;;;;;;135.27;54.17;;;;;;;-4.05;82.02;100571.56;5113698;28;20043;-78
2021/12/22 03:39:00;;;;;;;54.90;28.13;;;;;;;-4.02;81.68;100575.13;5107103;28;20055;-77
2021/12/22 03:41:29;;;;;;;49.28;21.88;;;;;;;-4.05;81.61;100579.47;5102651;28;20385;-80
2021/12/22 03:43:57;;;;;;;59.63;25.30;;;;;;;-4.08;82.13;100577.66;5113512;28;20039;-77
2021/12/22 03:46:24;;;;;;;82.03;30.55;;;;;;;-4.01;82.48;100574.28;5113472;28;20047;-78
2021/12/22 03:48:52;;;;;;;52.92;22.40;;;;;;;-4.08;82.19;100582.94;5113586;28;20074;-77
2021/12/22 03:51:19;;;;;;;60.83;22.77;;;;;;;-4.14;82.43;100585.47;5103540;28;20516;-78
2021/12/22 03:53:47;;;;;;;50.13;19.05;;;;;;;-4.19;82.28;100579.25;5092956;28;20044;-78
2021/12/22 03:56:14;;;;;;;84.20;27.70;;;;;;;-4.17;81.71;100578.44;5093147;28;20040;-77
2021/12/22 03:58:43;;;;;;;51.40;20.67;;;;;;;-4.18;82.78;100587.22;5093054;28;20672;-78
2021/12/22 04:01:11;;;;;;;47.08;20.42;;;;;;;-4.20;81.24;100586.28;5092981;28;20066;-78
2021/12/22 04:03:40;;;;;;;59.47;24.98;;;;;;;-4.26;82.03;100588.84;5092823;28;20287;-79
2021/12/22 04:06:08;;;;;;;58.35;25.92;;;;;;;-4.29;81.75;100589.66;5091436;28;20048;-77
2021/12/22 04:08:36;;;;;;;42.65;18.55;;;;;;;-4.28;81.36;100588.81;5093061;28;20097;-77
2021/12/22 04:11:04;;;;;;;33.25;16.50;;;;;;;-4.38;81.93;100585.13;5095568;28;20045;-77
2021/12/22 04:13:31;;;;;;;44.33;20.13;;;;;;;-4.47;80.82;100598.16;5096773;28;20400;-77
2021/12/22 04:16:00;;;;;;;42.95;19.23;;;;;;;-4.48;81.85;100592.88;5096822;28;20109;-78
2021/12/22 04:18:28;;;;;;;46.20;20.38;;;;;;;-4.54;81.24;100599.78;5096833;28;20052;-77
2021/12/22 04:20:55;;;;;;;50.70;22.65;;;;;;;-4.59;81.82;100605.88;5096589;28;20047;-78
2021/12/22 04:23:23;;;;;;;88.65;34.72;;;;;;;-4.63;82.36;100606.66;5096776;28;20047;-77
2021/12/22 04:25:50;;;;;;;81.15;33.85;;;;;;;-4.53;81.53;100606.84;5096853;28;20091;-77
2021/12/22 04:28:18;;;;;;;56.30;25.38;;;;;;;-4.58;81.32;100612.91;5096750;28;20044;-78
2021/12/22 04:30:49;;;;;;;41.67;19.55;;;;;;;-4.50;81.32;100608.66;5096581;28;20044;-77
2021/12/22 04:33:19;;;;;;;42.28;19.98;;;;;;;-4.54;81.65;100601.56;5097090;28;20072;-78
2021/12/22 04:35:47;;;;;;;44.95;23.67;;;;;;;-4.57;82.50;100605.00;5097402;28;20040;-81
2021/12/22 04:38:15;;;;;;;36.75;17.42;;;;;;;-4.53;81.63;100611.25;5096587;28;20040;-79
2021/12/22 04:40:42;;;;;;;56.15;24.55;;;;;;;-4.53;81.77;100611.25;5099421;28;20039;-77
2021/12/22 04:43:10;;;;;;;51.88;23.95;;;;;;;-4.47;82.11;100615.75;5116816;28;20044;-78
2021/12/22 04:45:37;;;;;;;43.05;18.25;;;;;;;-4.37;81.53;100612.41;5116696;28;20044;-77
2021/12/22 04:48:05;;;;;;;42.35;18.52;;;;;;;-4.47;81.56;100611.34;5116628;28;20044;-77
2021/12/22 04:50:35;;;;;;;50.00;19.85;;;;;;;-4.36;81.36;100619.44;5110180;28;20052;-77
2021/12/22 04:53:08;;;;;;;43.38;18.83;;;;;;;-4.32;81.35;100623.91;5096137;28;20603;-74
2021/12/22 04:55:36;;;;;;;38.03;16.90;;;;;;;-4.43;82.25;100618.44;5098037;28;20097;-77
2021/12/22 04:58:03;;;;;;;41.25;18.98;;;;;;;-4.33;81.87;100618.59;5096042;28;20048;-77
2021/12/22 05:00:34;;;;;;;70.07;29.95;;;;;;;-4.41;82.20;100616.72;5095927;28;20047;-77
2021/12/22 05:03:02;;;;;;;43.08;20.80;;;;;;;-4.56;82.14;100627.00;5097061;28;20048;-77
2021/12/22 05:05:30;;;;;;;43.42;21.73;;;;;;;-4.64;82.07;100628.63;5095492;28;20370;-77
2021/12/22 05:07:59;;;;;;;45.50;20.73;;;;;;;-4.64;82.19;100621.59;5111430;28;20047;-77
2021/12/22 05:10:28;;;;;;;59.63;27.40;;;;;;;-4.60;81.83;100641.00;5116003;28;20054;-77
2021/12/22 05:12:55;;;;;;;56.88;26.10;;;;;;;-4.51;81.39;100642.03;5117815;28;20055;-77
2021/12/22 05:15:25;;;;;;;41.47;20.50;;;;;;;-4.43;81.75;100634.28;5116084;28;20043;-77
2021/12/22 05:20:43;;;;;;;53.28;27.17;;;;;;;-4.49;82.18;100634.16;5099767;27;20420;-77
2021/12/22 05:23:12;;;;;;;38.65;19.70;;;;;;;-4.52;81.45;100628.84;5115955;28;20047;-78
2021/12/22 05:25:40;;;;;;;41.13;19.02;;;;;;;-4.59;81.46;100635.75;5115847;28;20388;-78
2021/12/22 05:28:08;;;;;;;47.58;21.67;;;;;;;-4.58;81.21;100634.00;5115994;28;20047;-79
2021/12/22 05:30:36;;;;;;;44.15;20.83;;;;;;;-4.67;81.46;100638.25;5116577;28;20039;-77
2021/12/22 05:33:04;;;;;;;39.85;18.30;;;;;;;-4.66;81.81;100641.78;5116084;28;20056;-77
2021/12/22 05:35:31;;;;;;;48.05;22.45;;;;;;;-4.69;81.70;100650.53;5115510;28;20046;-79
2021/12/22 05:37:59;;;;;;;84.03;38.78;;;;;;;-4.62;81.35;100648.88;5115661;28;20044;-78
2021/12/22 05:40:28;;;;;;;127.55;63.15;;;;;;;-4.66;81.75;100653.22;5098411;28;20044;-78
2021/12/22 05:42:57;;;;;;;120.13;47.67;;;;;;;-4.63;81.08;100656.78;5115775;28;20054;-85
2021/12/22 05:45:25;;;;;;;133.20;48.50;;;;;;;-4.66;81.45;100658.50;5115591;28;20066;-81
2021/12/22 05:47:53;;;;;;;115.20;37.22;;;;;;;-4.72;81.13;100657.47;5115199;28;20058;-77
2021/12/22 05:50:22;;;;;;;156.90;45.17;;;;;;;-4.79;81.61;100656.47;5116933;28;20048;-78
2021/12/22 05:52:50;;;;;;;71.60;24.05;;;;;;;-4.83;81.74;100670.44;5115754;28;20097;-81
2021/12/22 05:55:18;;;;;;;50.83;20.10;;;;;;;-4.86;80.65;100670.38;5113294;28;20050;-78
2021/12/22 05:57:47;;;;;;;50.47;18.85;;;;;;;-4.89;81.50;100671.22;5111807;28;20043;-77
2021/12/22 06:00:15;;;;;;;53.10;20.05;;;;;;;-4.72;81.23;100671.53;5111477;28;20044;-77
2021/12/22 06:02:43;;;;;;;49.33;19.35;;;;;;;-4.72;81.57;100684.72;5111559;28;20051;-77
2021/12/22 06:05:11;;;;;;;59.72;21.10;;;;;;;-4.68;82.40;100686.56;5111607;28;20500;-77
2021/12/22 06:07:39;;;;;;;126.03;32.95;;;;;;;-4.57;81.88;100684.13;5111555;28;20047;-77
2021/12/22 06:10:07;;;;;;;132.73;38.72;;;;;;;-4.51;82.24;100684.22;5111789;28;20708;-77
2021/12/22 06:12:34;;;;;;;96.90;39.10;;;;;;;-4.48;81.81;100696.59;5111216;28;20046;-78
2021/12/22 06:15:04;;;;;;;79.32;24.67;;;;;;;-4.46;83.36;100692.25;5115125;28;20044;-77
2021/12/22 06:17:32;;;;;;;110.07;30.00;;;;;;;-4.40;83.01;100702.91;5114893;28;20155;-77
2021/12/22 06:19:59;;;;;;;72.18;23.58;;;;;;;-4.23;82.67;100700.59;5114370;28;20051;-77
2021/12/22 06:22:29;;;;;;;83.82;26.90;;;;;;;-4.29;83.54;100704.84;5114559;28;20100;-78
2021/12/22 06:24:57;;;;;;;70.93;25.48;;;;;;;-4.19;82.31;100700.63;5114852;28;20048;-77
2021/12/22 06:27:24;;;;;;;61.90;22.98;;;;;;;-4.23;83.28;100713.78;5114608;28;20054;-77
2021/12/22 06:29:52;;;;;;;59.95;23.45;;;;;;;-4.15;83.03;100706.00;5114874;28;20048;-78
2021/12/22 06:32:21;;;;;;;62.58;22.38;;;;;;;-4.19;82.45;100708.53;5114109;28;20036;-77
2021/12/22 06:34:49;;;;;;;83.55;27.60;;;;;;;-4.24;82.23;100719.91;5114456;28;20043;-77
2021/12/22 06:37:16;;;;;;;68.85;26.25;;;;;;;-4.12;83.17;100723.63;5114634;28;20047;-77
2021/12/22 06:39:44;;;;;;;59.47;24.73;;;;;;;-4.17;82.33;100720.00;5102213;28;20055;-77
2021/12/22 06:42:11;;;;;;;62.60;23.55;;;;;;;-4.18;82.82;100721.78;5109887;28;20047;-77
2021/12/22 06:44:39;;;;;;;69.30;25.95;;;;;;;-4.15;82.76;100729.75;5114452;28;20488;-78
2021/12/22 06:47:07;;;;;;;58.33;23.35;;;;;;;-4.22;82.87;100728.75;5113914;28;20050;-77
2021/12/22 06:49:36;;;;;;;42.78;18.00;;;;;;;-4.25;82.58;100735.72;5114408;28;20043;-77
2021/12/22 06:52:04;;;;;;;37.50;16.38;;;;;;;-4.30;83.79;100735.63;5114173;28;20081;-77
2021/12/22 06:54:32;;;;;;;60.88;23.17;;;;;;;-4.24;82.62;100734.88;5114342;28;20043;-76
2021/12/22 06:56:59;;;;;;;51.28;19.95;;;;;;;-4.28;83.34;100738.31;5114251;28;20066;-77
2021/12/22 06:59:27;;;;;;;65.32;28.73;;;;;;;-4.30;83.94;100740.91;5114269;28;20043;-79
2021/12/22 07:01:54;;;;;;;65.32;25.90;;;;;;;-4.19;83.48;100737.56;5113846;28;20043;-77
2021/12/22 07:04:23;;;;;;;73.43;29.63;;;;;;;-4.13;82.74;100749.13;5113946;28;20051;-77
2021/12/22 07:06:52;;;;;;;61.58;26.77;;;;;;;-4.14;83.18;100747.38;5113957;28;20035;-77
2021/12/22 07:09:20;;;;;;;77.03;30.70;;;;;;;-4.12;83.32;100750.00;5114073;28;20048;-78
2021/12/22 07:11:48;;;;;;;49.88;19.92;;;;;;;-4.23;83.40;100747.19;5113986;28;20047;-78
2021/12/22 07:14:15;;;;;;;45.33;19.38;;;;;;;-4.19;84.08;100753.41;5114017;28;20047;-78
2021/12/22 07:16:44;;;;;;;45.28;20.02;;;;;;;-4.14;83.34;100754.38;5113569;28;20058;-77
2021/12/22 07:19:11;;;;;;;72.70;30.90;;;;;;;-4.03;83.01;100755.47;5113876;28;20047;-76
2021/12/22 07:21:39;;;;;;;76.30;34.42;;;;;;;-3.97;83.70;100757.31;5114006;28;20047;-79
2021/12/22 07:24:08;;;;;;;87.85;33.50;;;;;;;-4.02;83.52;100754.63;5113924;28;20121;-78
2021/12/22 07:26:37;;;;;;;103.47;42.47;;;;;;;-4.00;83.05;100752.91;5113461;28;20492;-77
2021/12/22 07:29:05;;;;;;;80.53;31.05;;;;;;;-3.90;83.47;100753.06;5113759;28;20507;-77
2021/12/22 07:31:33;;;;;;;58.38;21.58;;;;;;;-3.97;84.30;100757.31;5113569;28;20047;-77
2021/12/22 07:34:07;;;;;;;46.33;19.42;;;;;;;-3.98;83.51;100753.81;5113723;28;20100;-77
2021/12/22 07:36:35;;;;;;;45.55;19.42;;;;;;;-3.98;83.76;100751.16;5114526;28;20051;-77
2021/12/22 07:39:04;;;;;;;43.88;20.38;;;;;;;-4.08;82.96;100768.59;5107146;28;20044;-78
2021/12/22 07:41:33;;;;;;;79.93;30.08;;;;;;;-3.98;82.70;100776.66;5103218;28;20047;-77
2021/12/22 07:44:00;;;;;;;50.80;21.85;;;;;;;-4.03;83.73;100784.53;5113197;28;20055;-77
2021/12/22 07:46:28;;;;;;;86.22;33.88;;;;;;;-3.99;84.20;100782.81;5116934;28;20400;-77
2021/12/22 07:48:55;;;;;;;64.65;27.05;;;;;;;-3.94;84.34;100786.41;5117917;28;20040;-78
2021/12/22 07:51:23;;;;;;;92.10;34.55;;;;;;;-3.90;83.88;100782.97;5117624;28;20051;-77
2021/12/22 07:53:51;;;;;;;63.95;24.92;;;;;;;-3.94;84.42;100783.78;5117560;28;20484;-79
2021/12/22 07:56:18;;;;;;;55.40;23.10;;;;;;;-3.84;83.68;100784.84;5117868;28;20488;-78
2021/12/22 07:58:47;;;;;;;61.90;23.73;;;;;;;-3.82;83.74;100794.56;5117134;28;20048;-78
2021/12/22 08:01:15;;;;;;;54.83;22.52;;;;;;;-3.86;84.51;100792.75;5117635;28;20124;-77
2021/12/22 08:03:42;;;;;;;47.70;21.10;;;;;;;-3.76;84.51;100790.25;5117536;28;20416;-77
2021/12/22 08:06:10;;;;;;;46.00;20.48;;;;;;;-3.80;84.00;100794.59;5117726;28;20036;-78
2021/12/22 08:08:37;;;;;;;44.88;20.00;;;;;;;-3.80;84.59;100794.59;5117427;28;20507;-77
2021/12/22 08:11:05;;;;;;;43.67;20.10;;;;;;;-3.76;84.32;100795.53;5117461;28;20044;-78
2021/12/22 08:13:33;;;;;;;46.58;20.92;;;;;;;-3.71;83.81;100799.16;5117038;28;20040;-77
2021/12/22 08:16:02;;;;;;;45.75;21.98;;;;;;;-3.74;84.60;100796.47;5099263;28;20051;-77
2021/12/22 08:18:30;;;;;;;48.85;22.50;;;;;;;-3.68;84.67;100807.13;5117155;28;20043;-77
2021/12/22 08:20:57;;;;;;;40.67;18.85;;;;;;;-3.66;84.32;100808.03;5117334;28;20043;-79
2021/12/22 08:23:25;;;;;;;38.90;17.73;;;;;;;-3.68;84.51;100810.63;5128848;27;20043;-76
2021/12/22 08:25:53;;;;;;;37.08;17.60;;;;;;;-3.57;83.55;100812.59;5137104;27;20075;-77
2021/12/22 08:28:21;;;;;;;31.38;14.60;;;;;;;-3.58;82.70;100811.69;5137413;27;20052;-77
2021/12/22 08:30:48;;;;;;;24.70;11.13;;;;;;;-3.65;80.09;100805.44;5137762;27;20043;-78
2021/12/22 08:33:21;;;;;;;28.05;12.45;;;;;;;-3.54;80.96;100810.00;5137705;27;20504;-77
2021/12/22 08:38:53;;;;;;;28.40;12.57;;;;;;;-3.61;80.14;100805.50;5124333;27;20405;-77
2021/12/22 08:41:23;;;;;;;27.25;11.32;;;;;;;-3.64;80.66;100812.50;5129013;27;20181;-74
2021/12/22 08:43:50;;;;;;;25.92;11.68;;;;;;;-3.61;80.29;100810.78;5115919;27;20039;-78
2021/12/22 08:46:18;;;;;;;21.55;10.48;;;;;;;-3.57;79.83;100810.84;5116434;28;20051;-78
2021/12/22 08:48:47;;;;;;;24.83;11.27;;;;;;;-3.47;79.86;100805.69;5116241;28;20051;-77
2021/12/22 08:51:15;;;;;;;22.52;11.27;;;;;;;-3.52;80.24;100819.72;5116353;28;20525;-77
2021/12/22 08:53:43;;;;;;;25.23;11.77;;;;;;;-3.53;79.92;100820.59;5116949;28;20058;-77
2021/12/22 08:56:10;;;;;;;24.95;13.00;;;;;;;-3.43;79.33;100815.47;5116136;28;20031;-78
2021/12/22 08:58:38;;;;;;;55.10;23.40;;;;;;;-3.43;79.73;100804.91;5116614;28;20153;-78
2021/12/22 09:01:05;;;;;;;28.10;13.10;;;;;;;-3.43;80.93;100819.00;5116515;28;20100;-76
2021/12/22 09:03:34;;;;;;;25.83;12.38;;;;;;;-3.42;79.63;100815.50;5116757;28;20047;-79
2021/12/22 09:06:03;;;;;;;31.48;14.60;;;;;;;-3.39;80.04;100807.59;5116466;28;20043;-77
2021/12/22 09:08:30;;;;;;;30.67;14.13;;;;;;;-3.39;80.13;100809.38;5113015;28;20058;-77
2021/12/22 09:10:58;;;;;;;33.05;15.23;;;;;;;-3.41;80.53;100814.63;5112613;28;20537;-81
2021/12/22 09:13:26;;;;;;;28.92;13.43;;;;;;;-3.36;80.52;100806.78;5112039;28;20062;-76
2021/12/22 09:15:53;;;;;;;25.15;11.73;;;;;;;-3.33;80.01;100806.84;5112822;28;20047;-77
2021/12/22 09:18:21;;;;;;;26.75;13.23;;;;;;;-3.30;79.75;100804.22;5111658;28;20050;-77
2021/12/22 09:20:48;;;;;;;35.75;20.45;;;;;;;-3.32;80.82;100802.41;5091911;28;20048;-77
2021/12/22 09:23:17;;;;;;;38.28;21.15;;;;;;;-3.29;81.33;100808.66;5092327;28;20059;-77
2021/12/22 09:25:45;;;;;;;44.00;23.63;;;;;;;-3.33;81.13;100806.84;5091379;28;20105;-77
2021/12/22 09:28:14;;;;;;;37.75;20.15;;;;;;;-3.31;80.91;100804.19;5104945;28;20048;-76
2021/12/22 09:30:42;;;;;;;34.10;15.40;;;;;;;-3.25;80.96;100806.97;5112218;28;20047;-77
2021/12/22 09:33:13;;;;;;;27.30;13.77;;;;;;;-3.25;80.67;100815.75;5111940;28;20051;-76
2021/12/22 09:35:41;;;;;;;267.77;131.05;;;;;;;-3.31;81.55;100815.66;5112995;28;20446;-76
2021/12/22 09:38:09;;;;;;;92.38;50.58;;;;;;;-3.29;81.01;100813.94;5111699;28;20047;-77
2021/12/22 09:40:39;;;;;;;42.15;23.55;;;;;;;-3.33;80.34;100820.03;5106569;27;20079;-76
2021/12/22 09:43:07;;;;;;;44.88;25.67;;;;;;;-3.31;80.64;100820.94;5111866;27;20039;-77
2021/12/22 09:45:37;;;;;;;30.55;15.75;;;;;;;-3.23;81.23;100813.16;5119824;27;20035;-77
2021/12/22 09:48:25;;;;;;;29.17;14.05;;;;;;;-3.28;81.73;100815.72;5123690;27;20050;-78
2021/12/22 09:52:15;;;;;;;24.98;11.80;;;;;;;-3.30;81.17;100817.44;5125556;27;20565;-78
2021/12/22 09:53:44;;;;;;;28.35;14.45;;;;;;;-3.29;80.67;100824.50;5118744;27;20545;-77
2021/12/22 09:56:15;;;;;;;27.27;13.38;;;;;;;-3.25;80.42;100810.47;5117484;27;20303;-78
2021/12/22 09:58:44;;;;;;;23.52;10.75;;;;;;;-3.21;80.22;100820.22;5117911;27;20063;-78
2021/12/22 10:01:12;;;;;;;18.63;9.80;;;;;;;-3.22;80.08;100813.16;5125038;27;20097;-89
2021/12/22 10:03:39;;;;;;;23.42;10.05;;;;;;;-3.23;79.03;100827.25;5120481;27;20036;-77
2021/12/22 10:06:07;;;;;;;25.40;13.35;;;;;;;-3.25;79.21;100825.47;5124097;27;20407;-79
2021/12/22 10:08:38;;;;;;;18.25;9.10;;;;;;;-3.21;78.65;100822.88;5124011;27;20045;-78
2021/12/22 10:11:09;;;;;;;18.40;9.10;;;;;;;-3.24;79.94;100827.25;5125096;27;20123;-78
2021/12/22 10:13:41;;;;;;;18.85;9.13;;;;;;;-3.26;79.21;100818.41;5128054;27;20051;-81
2021/12/22 10:16:11;;;;;;;19.00;8.68;;;;;;;-3.18;78.81;100818.50;5121489;27;20036;-86
2021/12/22 10:18:39;;;;;;;17.35;8.25;;;;;;;-3.22;78.79;100812.28;5123656;27;20069;-78
2021/12/22 10:21:11;;;;;;;19.08;8.95;;;;;;;-3.16;77.94;100817.66;5120446;27;20043;-77
2021/12/22 10:23:42;;;;;;;15.90;7.57;;;;;;;-3.16;76.50;100814.13;5122622;27;20047;-81
2021/12/22 10:26:15;;;;;;;16.85;8.43;;;;;;;-3.23;77.25;100816.69;5120946;27;20103;-78
2021/12/22 10:28:49;;;;;;;17.95;8.07;;;;;;;-3.20;76.70;100814.06;5122493;27;20545;-78
2021/12/22 10:31:18;;;;;;;16.30;7.88;;;;;;;-3.20;76.33;100816.72;5123715;27;20042;-79
2021/12/22 10:33:46;;;;;;;17.55;8.80;;;;;;;-3.19;77.06;100814.97;5124500;27;20518;-78
2021/12/22 10:36:17;;;;;;;16.63;8.25;;;;;;;-3.01;75.73;100827.59;5123664;27;20060;-79
2021/12/22 10:38:50;;;;;;;16.45;7.82;;;;;;;-2.89;76.39;100810.13;5123460;27;20488;-79
2021/12/22 10:41:18;;;;;;;15.88;7.57;;;;;;;-2.89;76.26;100812.78;5124264;27;20047;-78
2021/12/22 10:43:49;;;;;;;17.98;7.97;;;;;;;-2.81;75.83;100811.13;5122068;27;20416;-79
2021/12/22 10:46:25;;;;;;;16.48;8.23;;;;;;;-2.80;76.44;100820.81;5135734;27;20051;-79
2021/12/22 10:49:17;;;;;;;16.88;7.25;;;;;;;-2.81;75.61;100817.31;5122676;27;20035;-78
2021/12/22 10:52:00;;;;;;;17.20;7.40;;;;;;;-2.92;75.71;100818.88;5119965;27;20052;-86
2021/12/22 10:54:34;;;;;;;16.40;8.07;;;;;;;-2.97;75.48;100821.47;5120113;27;20043;-78
2021/12/22 10:57:06;;;;;;;17.40;9.02;;;;;;;-3.00;74.24;100817.88;5123433;27;20039;-80
2021/12/22 10:59:45;;;;;;;13.52;6.88;;;;;;;-3.03;74.85;100821.41;5124140;27;20043;-78
2021/12/22 11:02:19;;;;;;;15.13;7.78;;;;;;;-3.06;75.31;100816.03;5122233;27;20092;-79
2021/12/22 11:04:49;;;;;;;19.23;8.38;;;;;;;-3.01;75.33;100817.03;5123179;27;20468;-78
2021/12/22 11:07:22;;;;;;;17.70;8.77;;;;;;;-3.01;75.72;100824.03;5121348;27;20050;-78
2021/12/22 11:09:50;;;;;;;39.70;18.23;;;;;;;-2.97;75.96;100824.13;5123764;27;20433;-78
2021/12/22 11:12:17;;;;;;;28.88;13.68;;;;;;;-2.94;75.79;100807.41;5123919;27;20039;-78
2021/12/22 11:14:47;;;;;;;51.00;23.58;;;;;;;-3.11;74.33;100807.16;5122616;27;20108;-78
2021/12/22 11:17:18;;;;;;;21.17;10.57;;;;;;;-3.04;74.45;100809.03;5122137;27;20065;-78
2021/12/22 11:19:53;;;;;;;55.38;21.70;;;;;;;-3.00;74.17;100805.56;5123916;27;20047;-86
2021/12/22 11:22:26;;;;;;;28.00;14.07;;;;;;;-3.01;73.92;100803.81;5120234;27;20044;-79
2021/12/22 11:24:55;;;;;;;23.20;11.93;;;;;;;-3.00;74.64;100799.38;5123649;27;20050;-79
2021/12/22 11:27:25;;;;;;;87.85;26.52;;;;;;;-3.07;74.73;100799.31;5119396;27;20044;-78